createdAt,value
2019-04-19T00:04:48.375Z,47.05
2019-04-19T00:07:33.783Z,46.99
2019-04-19T00:10:35.293Z,47.10
2019-04-19T00:13:07.742Z,47.39
2019-04-19T00:15:56.090Z,47.46
2019-04-19T00:19:10.422Z,47.92
2019-04-19T00:22:05.216Z,47.96
2019-04-19T00:24:27.082Z,47.97
2019-04-19T00:27:15.998Z,48.79
2019-04-19T00:30:40.112Z,48.73
2019-04-19T00:33:26.130Z,49.33
2019-04-19T00:36:10.465Z,49.26
2019-04-19T00:42:44.004Z,50.43
2019-04-19T00:45:58.338Z,51.18
2019-04-19T00:51:45.036Z,51.29
2019-04-19T00:54:27.010Z,51.69
2019-04-19T00:57:19.143Z,52.06
2019-04-19T00:59:58.207Z,52.18
2019-04-19T01:02:51.791Z,52.80
2019-04-19T01:05:35.716Z,52.49
2019-04-19T01:08:24.270Z,52.97
2019-04-19T01:11:23.502Z,53.62
2019-04-19T01:14:08.736Z,54.17
2019-04-19T01:17:03.139Z,54.03
2019-04-19T01:19:39.022Z,54.64
2019-04-19T01:22:30.117Z,55.82
2019-04-19T01:25:21.283Z,56.26
2019-04-19T01:28:13.915Z,56.33
2019-04-19T01:30:59.041Z,56.56
2019-04-19T01:33:49.199Z,56.57
2019-04-19T01:36:43.864Z,56.43
2019-04-19T01:39:50.953Z,57.30
2019-04-19T01:45:53.460Z,56.48
2019-04-19T01:48:44.258Z,57.30
2019-04-19T01:51:51.353Z,56.94
2019-04-19T01:54:47.991Z,57.19
2019-04-19T01:57:19.451Z,57.66
2019-04-19T02:03:07.566Z,57.15
2019-04-19T02:06:01.511Z,57.11
2019-04-19T02:08:50.854Z,57.10
2019-04-19T02:12:13.188Z,57.24
2019-04-19T02:14:48.499Z,57.08
2019-04-19T02:17:34.766Z,57.14
2019-04-19T02:20:22.197Z,57.36
2019-04-19T02:23:14.652Z,57.20
2019-04-19T02:26:08.939Z,58.41
2019-04-19T02:28:56.570Z,59.16
2019-04-19T02:32:17.340Z,59.16
2019-04-19T02:37:52.933Z,58.63
2019-04-19T02:40:52.419Z,58.99
2019-04-19T02:43:39.881Z,58.64
2019-04-19T02:46:38.393Z,58.19
2019-04-19T02:49:21.765Z,57.49
2019-04-19T02:52:09.925Z,57.51
2019-04-19T03:01:41.795Z,59.44
2019-04-19T03:06:56.126Z,59.77
2019-04-19T03:09:39.242Z,59.89
2019-04-19T03:12:43.881Z,60.48
2019-04-19T03:15:29.805Z,60.85
2019-04-19T03:18:23.653Z,60.98
2019-04-19T03:21:02.214Z,60.46
2019-04-19T03:23:55.338Z,60.63
2019-04-19T03:26:45.715Z,60.71
2019-04-19T03:29:29.408Z,61.11
2019-04-19T03:32:56.233Z,61.02
2019-04-19T03:35:14.263Z,60.81
2019-04-19T03:38:14.179Z,60.95
2019-04-19T03:44:17.154Z,61.08
2019-04-19T03:47:10.203Z,61.88
2019-04-19T03:50:01.812Z,61.77
2019-04-19T03:52:50.107Z,61.42
2019-04-19T03:55:37.483Z,61.58
2019-04-19T03:58:16.521Z,61.63
2019-04-19T04:01:02.519Z,61.49
2019-04-19T04:03:56.611Z,61.55
2019-04-19T04:06:45.623Z,61.48
2019-04-19T04:09:57.147Z,61.81
2019-04-19T04:16:04.887Z,63.22
2019-04-19T04:18:40.662Z,62.99
2019-04-19T04:21:37.194Z,62.99
2019-04-19T04:27:35.106Z,62.68
2019-04-19T04:33:51.823Z,63.08
2019-04-19T04:36:45.115Z,62.88
2019-04-19T04:39:17.733Z,62.98
2019-04-19T04:42:16.441Z,63.53
2019-04-19T04:48:01.400Z,64.14
2019-04-19T04:51:03.023Z,64.01
2019-04-19T04:53:47.212Z,64.50
2019-04-19T04:57:05.294Z,64.72
2019-04-19T04:59:50.395Z,65.67
2019-04-19T05:02:51.869Z,65.09
2019-04-19T05:05:43.163Z,64.75
2019-04-19T05:08:36.289Z,64.17
2019-04-19T05:11:15.979Z,65.16
2019-04-19T05:14:12.634Z,65.21
2019-04-19T05:17:12.317Z,65.47
2019-04-19T05:19:50.324Z,64.65
2019-04-19T05:22:36.897Z,63.85
2019-04-19T05:28:55.576Z,63.10
2019-04-19T05:31:40.540Z,62.41
2019-04-19T05:34:41.708Z,62.37
2019-04-19T05:40:55.023Z,61.46
2019-04-19T05:44:19.693Z,61.43
2019-04-19T05:46:58.814Z,60.98
2019-04-19T05:49:52.445Z,60.77
2019-04-19T05:52:42.361Z,59.94
2019-04-19T05:55:16.478Z,59.33
2019-04-19T05:58:14.319Z,59.00
2019-04-19T06:01:07.954Z,58.46
2019-04-19T06:04:04.396Z,58.61
2019-04-19T06:06:56.492Z,58.58
2019-04-19T06:09:26.438Z,57.87
2019-04-19T06:12:17.793Z,57.49
2019-04-19T06:15:22.833Z,57.44
2019-04-19T06:18:26.116Z,57.42
2019-04-19T06:24:14.868Z,56.92
2019-04-19T06:30:13.367Z,56.53
2019-04-19T06:33:03.077Z,54.92
2019-04-19T06:35:41.587Z,53.86
2019-04-19T06:38:20.614Z,52.91
2019-04-19T06:44:12.916Z,53.15
2019-04-19T06:49:50.947Z,52.27
2019-04-19T06:52:40.023Z,51.39
2019-04-19T06:55:34.471Z,50.59
2019-04-19T06:58:24.828Z,50.82
2019-04-19T07:01:21.722Z,50.34
2019-04-19T07:04:02.065Z,50.35
2019-04-19T07:07:09.481Z,50.28
2019-04-19T07:18:51.129Z,49.21
2019-04-19T07:21:47.157Z,48.74
2019-04-19T07:24:59.225Z,49.07
2019-04-19T07:27:23.680Z,48.70
2019-04-19T07:30:03.434Z,48.78
2019-04-19T07:39:22.824Z,47.07
2019-04-19T07:42:15.642Z,45.22
2019-04-19T07:45:05.888Z,45.25
2019-04-19T07:51:09.149Z,45.78
2019-04-19T07:53:54.667Z,45.19
2019-04-19T07:56:54.458Z,45.21
2019-04-19T07:59:54.904Z,44.04
2019-04-19T08:02:50.353Z,43.53
2019-04-19T08:05:43.951Z,42.62
2019-04-19T08:11:25.935Z,41.55
2019-04-19T08:14:09.765Z,41.75
2019-04-19T08:17:29.075Z,41.95
2019-04-19T08:28:07.246Z,40.99
2019-04-19T08:33:36.076Z,40.84
2019-04-19T08:36:33.041Z,40.99
2019-04-19T08:39:33.839Z,40.53
2019-04-19T08:42:27.390Z,40.31
2019-04-19T08:45:04.238Z,39.67
2019-04-19T08:48:15.611Z,39.36
2019-04-19T08:54:29.753Z,39.45
2019-04-19T08:57:04.708Z,39.20
2019-04-19T09:00:12.497Z,38.52
2019-04-19T09:02:55.636Z,38.93
2019-04-19T09:05:47.921Z,39.14
2019-04-19T09:08:38.465Z,38.84
2019-04-19T09:11:25.211Z,38.51
2019-04-19T09:14:12.335Z,39.23
2019-04-19T09:17:10.123Z,38.71
2019-04-19T09:20:08.096Z,37.61
2019-04-19T09:22:56.670Z,37.60
2019-04-19T09:26:05.683Z,37.37
2019-04-19T09:34:43.970Z,36.93
2019-04-19T09:37:42.790Z,35.78
2019-04-19T09:40:28.443Z,37.00
2019-04-19T09:43:21.419Z,37.31
2019-04-19T09:45:57.883Z,35.25
2019-04-19T09:49:06.717Z,36.73
2019-04-19T09:51:52.867Z,35.84
2019-04-19T09:54:51.719Z,35.74
2019-04-19T09:58:00.677Z,36.73
2019-04-19T10:03:49.358Z,35.97
2019-04-19T10:06:35.114Z,35.57
2019-04-19T10:09:26.933Z,36.08
2019-04-19T10:12:09.038Z,35.88
2019-04-19T10:14:57.904Z,36.54
2019-04-19T10:17:46.878Z,35.05
2019-04-19T10:20:56.625Z,35.94
2019-04-19T10:23:45.689Z,35.67
2019-04-19T10:26:54.926Z,34.22
2019-04-19T10:29:45.683Z,36.19
2019-04-19T10:35:43.608Z,34.61
2019-04-19T10:38:33.797Z,34.46
2019-04-19T10:41:22.923Z,34.04
2019-04-19T10:44:16.576Z,34.07
2019-04-19T10:47:02.946Z,30.77
2019-04-19T10:49:58.252Z,31.04
2019-04-19T10:58:36.827Z,30.43
2019-04-19T11:01:19.364Z,30.70
2019-04-19T11:04:08.852Z,31.18
2019-04-19T11:10:09.559Z,31.90
2019-04-19T11:12:58.797Z,30.62
2019-04-19T11:15:48.571Z,30.85
2019-04-19T11:18:39.225Z,31.16
2019-04-19T11:21:29.658Z,30.57
2019-04-19T11:24:20.023Z,29.83
2019-04-19T11:27:11.077Z,30.13
2019-04-19T11:36:05.758Z,30.32
2019-04-19T11:38:56.836Z,29.96
2019-04-19T11:41:47.483Z,31.13
2019-04-19T11:47:31.535Z,31.56
2019-04-19T11:50:20.407Z,29.77
2019-04-19T11:59:40.260Z,30.04
2019-04-19T12:02:42.174Z,30.43
2019-04-19T12:05:34.037Z,30.67
2019-04-19T12:08:22.541Z,29.19
2019-04-19T12:11:12.617Z,29.06
2019-04-19T12:14:02.170Z,29.08
2019-04-19T12:19:51.771Z,28.60
2019-04-19T12:25:29.964Z,29.72
2019-04-19T12:28:19.640Z,29.91
2019-04-19T12:31:09.494Z,29.73
2019-04-19T12:33:59.752Z,29.73
2019-04-19T12:36:49.014Z,28.89
2019-04-19T12:39:39.063Z,29.69
2019-04-19T12:42:46.861Z,30.02
2019-04-19T12:48:43.775Z,28.60
2019-04-19T12:51:34.372Z,29.22
2019-04-19T12:54:25.880Z,29.01
2019-04-19T12:57:16.081Z,29.63
2019-04-19T13:03:39.734Z,27.68
2019-04-19T13:06:48.209Z,27.50
2019-04-19T13:09:37.257Z,27.06
2019-04-19T13:12:28.682Z,28.04
2019-04-19T13:15:17.975Z,27.18
2019-04-19T13:18:06.755Z,27.07
2019-04-19T13:20:55.701Z,26.46
2019-04-19T13:23:44.404Z,25.32
2019-04-19T13:26:33.522Z,24.49
2019-04-19T13:29:23.689Z,25.16
2019-04-19T13:32:13.534Z,25.51
2019-04-19T13:35:03.500Z,25.11
2019-04-19T13:38:12.809Z,25.61
2019-04-19T13:41:01.408Z,24.92
2019-04-19T13:44:09.558Z,24.87
2019-04-19T13:46:58.506Z,24.47
2019-04-19T13:49:51.767Z,23.95
2019-04-19T13:52:39.602Z,23.45
2019-04-19T13:55:28.761Z,23.04
2019-04-19T13:58:19.936Z,22.85
2019-04-19T14:01:03.022Z,22.72
2019-04-19T14:03:53.157Z,22.55
2019-04-19T14:06:42.454Z,21.66
2019-04-19T14:13:01.002Z,21.73
2019-04-19T14:15:51.037Z,21.94
2019-04-19T14:18:22.566Z,21.70
2019-04-19T14:21:12.838Z,21.96
2019-04-19T14:24:03.785Z,21.89
2019-04-19T14:26:55.978Z,22.20
2019-04-19T14:29:45.466Z,22.20
2019-04-19T14:32:34.983Z,22.12
2019-04-19T14:35:23.973Z,21.85
2019-04-19T14:38:15.767Z,21.68
2019-04-19T14:41:05.303Z,21.63
2019-04-19T14:43:55.368Z,22.62
2019-04-19T14:46:38.669Z,22.15
2019-04-19T14:49:27.524Z,21.75
2019-04-19T14:55:25.305Z,22.83
2019-04-19T14:58:14.710Z,22.15
2019-04-19T15:04:37.525Z,23.01
2019-04-19T15:13:30.660Z,22.71
2019-04-19T15:16:21.025Z,22.43
2019-04-19T15:19:11.073Z,22.36
2019-04-19T15:22:01.887Z,23.40
2019-04-19T15:28:22.692Z,22.85
2019-04-19T15:31:12.627Z,22.45
2019-04-19T15:34:02.773Z,22.77
2019-04-19T15:36:51.982Z,22.66
2019-04-19T15:39:42.032Z,22.39
2019-04-19T15:42:32.482Z,22.84
2019-04-19T15:45:32.474Z,22.65
2019-04-19T15:48:26.249Z,22.32
2019-04-19T15:51:15.307Z,23.17
2019-04-19T15:53:56.392Z,22.67
2019-04-19T15:56:45.632Z,23.03
2019-04-19T15:59:34.844Z,22.61
2019-04-19T16:02:44.245Z,22.65
2019-04-19T16:05:52.130Z,22.39
2019-04-19T16:09:01.158Z,22.10
2019-04-19T16:12:09.470Z,22.42
2019-04-19T16:14:58.251Z,22.44
2019-04-19T16:20:54.776Z,22.26
2019-04-19T16:23:44.888Z,22.45
2019-04-19T16:26:35.039Z,22.68
2019-04-19T16:29:35.461Z,21.96
2019-04-19T16:32:15.071Z,22.17
2019-04-19T16:38:32.599Z,22.04
2019-04-19T16:41:22.917Z,22.99
2019-04-19T16:44:11.722Z,23.36
2019-04-19T16:47:01.321Z,23.24
2019-04-19T16:49:44.787Z,23.45
2019-04-19T16:52:33.598Z,23.49
2019-04-19T16:55:41.533Z,23.16
2019-04-19T17:01:38.922Z,23.58
2019-04-19T17:07:57.385Z,23.60
2019-04-19T17:10:47.516Z,23.73
2019-04-19T17:16:52.709Z,24.81
2019-04-19T17:20:00.759Z,24.51
2019-04-19T17:22:50.646Z,25.05
2019-04-19T17:25:41.097Z,24.73
2019-04-19T17:28:30.803Z,25.08
2019-04-19T17:31:20.283Z,25.29
2019-04-19T17:34:10.151Z,25.53
2019-04-19T17:37:00.233Z,25.77
2019-04-19T17:39:50.635Z,25.96
2019-04-19T17:42:40.359Z,26.58
2019-04-19T17:45:31.539Z,27.45
2019-04-19T17:48:21.006Z,28.26
2019-04-19T17:51:03.929Z,28.86
2019-04-19T17:53:53.785Z,29.40
2019-04-19T17:56:43.327Z,30.05
2019-04-19T17:59:32.279Z,31.22
2019-04-19T18:02:23.332Z,32.01
2019-04-19T18:05:13.976Z,33.28
2019-04-19T18:08:04.265Z,34.03
2019-04-19T18:10:57.062Z,34.62
2019-04-19T18:13:44.818Z,35.47
2019-04-19T18:16:34.596Z,35.89
2019-04-19T18:19:31.468Z,36.83
2019-04-19T18:22:31.163Z,37.71
2019-04-19T18:25:32.463Z,37.96
2019-04-19T18:28:19.376Z,37.80
2019-04-19T18:31:09.524Z,38.61
2019-04-19T18:34:03.953Z,39.17
2019-04-19T18:36:51.892Z,39.57
2019-04-19T18:39:38.641Z,39.40
2019-04-19T18:42:28.095Z,39.71
2019-04-19T18:45:24.747Z,40.07
2019-04-19T18:48:09.383Z,39.89
2019-04-19T18:50:52.479Z,40.45
2019-04-19T18:54:12.018Z,41.38
2019-04-19T18:56:58.610Z,41.48
2019-04-19T18:59:44.533Z,41.87
2019-04-19T19:02:32.317Z,42.02
2019-04-19T19:05:23.664Z,42.24
2019-04-19T19:08:17.577Z,41.78
2019-04-19T19:11:09.758Z,42.71
2019-04-19T19:13:55.159Z,43.21
2019-04-19T19:16:45.256Z,43.17
2019-04-19T19:19:37.099Z,42.70
2019-04-19T19:22:32.281Z,42.68
2019-04-19T19:25:47.154Z,42.40
2019-04-19T19:28:28.430Z,42.72
2019-04-19T19:31:18.794Z,42.55
2019-04-19T19:34:09.873Z,42.60
2019-04-19T19:37:01.009Z,42.99
2019-04-19T19:39:56.681Z,43.19
2019-04-19T19:45:48.966Z,43.37
2019-04-19T19:51:43.343Z,43.46
2019-04-19T19:54:44.909Z,43.87
2019-04-19T19:57:30.121Z,44.65
2019-04-19T20:03:34.531Z,44.98
2019-04-19T20:06:17.325Z,44.84
2019-04-19T20:09:29.663Z,44.44
2019-04-19T20:12:22.611Z,45.24
2019-04-19T20:15:33.465Z,45.67
2019-04-19T20:18:25.543Z,45.70
2019-04-19T20:21:13.516Z,46.63
2019-04-19T20:24:14.613Z,46.31
2019-04-19T20:27:04.364Z,47.26
2019-04-19T20:29:43.788Z,46.20
2019-04-19T20:32:32.516Z,47.49
2019-04-19T20:35:18.012Z,47.06
2019-04-19T20:38:10.416Z,47.82
2019-04-19T20:41:01.489Z,47.92
2019-04-19T20:43:59.638Z,47.33
2019-04-19T20:46:37.998Z,47.50
2019-04-19T20:49:34.972Z,47.67
2019-04-19T20:52:45.433Z,47.71
2019-04-19T20:55:45.442Z,47.62
2019-04-19T20:58:29.990Z,48.34
2019-04-19T21:01:10.444Z,47.68
2019-04-19T21:04:04.586Z,47.89
2019-04-19T21:06:51.756Z,48.71
2019-04-19T21:09:43.240Z,48.15
2019-04-19T21:12:34.563Z,47.73
2019-04-19T21:15:29.408Z,49.40
2019-04-19T21:18:19.033Z,49.33
2019-04-19T21:21:08.986Z,49.56
2019-04-19T21:24:01.428Z,49.71
2019-04-19T21:26:45.692Z,49.10
2019-04-19T21:29:36.824Z,49.38
2019-04-19T21:32:29.287Z,50.44
2019-04-19T21:35:12.445Z,49.51
2019-04-19T21:38:05.793Z,49.17
2019-04-19T21:40:50.282Z,48.76
2019-04-19T21:43:42.081Z,48.58
2019-04-19T21:46:33.644Z,48.96
2019-04-19T21:49:22.923Z,48.79
2019-04-19T21:52:16.239Z,48.30
2019-04-19T21:55:18.634Z,49.00
2019-04-19T21:57:53.696Z,49.64
2019-04-19T22:01:10.061Z,48.00
2019-04-19T22:03:57.387Z,48.13
2019-04-19T22:06:47.680Z,48.83
2019-04-19T22:09:34.840Z,48.23
2019-04-19T22:12:24.190Z,48.68
2019-04-19T22:15:15.704Z,49.00
2019-04-19T22:18:06.215Z,49.43
2019-04-19T22:23:51.691Z,49.70
2019-04-19T22:26:47.064Z,49.69
2019-04-19T22:29:42.150Z,49.23
2019-04-19T22:32:22.203Z,49.86
2019-04-19T22:35:16.770Z,50.08
2019-04-19T22:37:54.752Z,50.42
2019-04-19T22:40:45.026Z,50.44
2019-04-19T22:43:34.410Z,50.68
2019-04-19T22:46:23.592Z,50.97
2019-04-19T22:49:16.195Z,51.27
2019-04-19T22:52:04.785Z,51.34
2019-04-19T22:55:01.996Z,51.07
2019-04-19T22:57:51.645Z,51.81
2019-04-19T23:00:40.084Z,52.16
2019-04-19T23:03:46.443Z,52.01
2019-04-19T23:06:36.533Z,52.46
2019-04-19T23:09:26.581Z,52.20
2019-04-19T23:12:16.806Z,51.91
2019-04-19T23:15:29.875Z,52.08
2019-04-19T23:18:21.464Z,52.79
2019-04-19T23:21:12.866Z,53.35
2019-04-19T23:24:03.899Z,53.27
2019-04-19T23:27:07.145Z,53.05
2019-04-19T23:29:40.019Z,53.34
2019-04-19T23:32:34.766Z,54.40
2019-04-19T23:35:12.567Z,55.20
2019-04-19T23:38:01.361Z,55.44
2019-04-19T23:40:50.988Z,55.28
2019-04-19T23:43:43.883Z,55.82
2019-04-19T23:46:35.440Z,56.02
2019-04-19T23:49:22.693Z,56.46
2019-04-19T23:52:12.921Z,57.01
2019-04-19T23:55:02.649Z,56.97
2019-04-19T23:57:55.717Z,57.20
